sensor_id;sensor_type;location;lat;lon;timestamp;temperature;humidity
66312;HTU21D;53114;51.138;6.008;2023-02-21T00:01:00;9.18;118.99
66312;HTU21D;53114;51.138;6.008;2023-02-21T00:03:45;9.16;118.99
66312;HTU21D;53114;51.138;6.008;2023-02-21T00:06:29;9.20;118.99
66312;HTU21D;53114;51.138;6.008;2023-02-21T00:09:14;9.25;118.99
66312;HTU21D;53114;51.138;6.008;2023-02-21T00:11:58;9.26;118.99
66312;HTU21D;53114;51.138;6.008;2023-02-21T00:14:42;9.25;118.99
66312;HTU21D;53114;51.138;6.008;2023-02-21T00:17:29;9.20;118.99
66312;HTU21D;53114;51.138;6.008;2023-02-21T00:20:14;9.17;118.99
66312;HTU21D;53114;51.138;6.008;2023-02-21T00:22:58;9.16;118.99
66312;HTU21D;53114;51.138;6.008;2023-02-21T00:25:42;9.12;118.99
66312;HTU21D;53114;51.138;6.008;2023-02-21T00:28:27;9.10;118.99
66312;HTU21D;53114;51.138;6.008;2023-02-21T00:31:11;9.06;118.99
66312;HTU21D;53114;51.138;6.008;2023-02-21T00:33:55;9.06;118.99
66312;HTU21D;53114;51.138;6.008;2023-02-21T00:36:40;9.04;118.99
66312;HTU21D;53114;51.138;6.008;2023-02-21T00:39:24;9.04;118.99
66312;HTU21D;53114;51.138;6.008;2023-02-21T00:42:09;9.04;118.99
66312;HTU21D;53114;51.138;6.008;2023-02-21T00:44:53;8.95;118.99
66312;HTU21D;53114;51.138;6.008;2023-02-21T00:47:37;8.91;118.99
66312;HTU21D;53114;51.138;6.008;2023-02-21T00:50:22;8.87;118.99
66312;HTU21D;53114;51.138;6.008;2023-02-21T00:53:06;8.87;118.99
66312;HTU21D;53114;51.138;6.008;2023-02-21T00:55:50;8.83;118.99
66312;HTU21D;53114;51.138;6.008;2023-02-21T00:58:35;8.82;118.99
66312;HTU21D;53114;51.138;6.008;2023-02-21T01:01:19;8.80;118.99
66312;HTU21D;53114;51.138;6.008;2023-02-21T01:04:04;8.80;118.99
66312;HTU21D;53114;51.138;6.008;2023-02-21T01:06:52;8.81;118.99
66312;HTU21D;53114;51.138;6.008;2023-02-21T01:09:36;8.76;118.99
66312;HTU21D;53114;51.138;6.008;2023-02-21T01:12:21;8.76;118.99
66312;HTU21D;53114;51.138;6.008;2023-02-21T01:15:06;8.70;118.99
66312;HTU21D;53114;51.138;6.008;2023-02-21T01:17:51;8.60;118.99
66312;HTU21D;53114;51.138;6.008;2023-02-21T01:20:36;8.56;118.99
66312;HTU21D;53114;51.138;6.008;2023-02-21T01:23:20;8.58;118.99
66312;HTU21D;53114;51.138;6.008;2023-02-21T01:26:08;8.60;118.99
66312;HTU21D;53114;51.138;6.008;2023-02-21T01:28:52;8.62;118.99
66312;HTU21D;53114;51.138;6.008;2023-02-21T01:31:37;8.63;118.99
66312;HTU21D;53114;51.138;6.008;2023-02-21T01:34:21;8.66;118.99
66312;HTU21D;53114;51.138;6.008;2023-02-21T01:37:05;8.66;118.99
66312;HTU21D;53114;51.138;6.008;2023-02-21T01:39:50;8.67;118.99
66312;HTU21D;53114;51.138;6.008;2023-02-21T01:42:35;8.68;118.99
66312;HTU21D;53114;51.138;6.008;2023-02-21T01:48:19;8.71;118.99
66312;HTU21D;53114;51.138;6.008;2023-02-21T01:51:07;8.71;118.99
66312;HTU21D;53114;51.138;6.008;2023-02-21T01:53:52;8.74;118.99
66312;HTU21D;53114;51.138;6.008;2023-02-21T01:56:39;8.79;118.99
66312;HTU21D;53114;51.138;6.008;2023-02-21T01:59:25;8.81;118.99
66312;HTU21D;53114;51.138;6.008;2023-02-21T02:02:20;8.77;118.99
66312;HTU21D;53114;51.138;6.008;2023-02-21T02:05:08;8.77;118.99
66312;HTU21D;53114;51.138;6.008;2023-02-21T02:07:54;8.75;118.99
66312;HTU21D;53114;51.138;6.008;2023-02-21T02:10:41;8.73;118.99
66312;HTU21D;53114;51.138;6.008;2023-02-21T02:19:25;8.77;118.99
66312;HTU21D;53114;51.138;6.008;2023-02-21T02:25:32;8.70;118.99
66312;HTU21D;53114;51.138;6.008;2023-02-21T02:39:59;8.83;118.99
66312;HTU21D;53114;51.138;6.008;2023-02-21T02:43:17;8.80;118.99
66312;HTU21D;53114;51.138;6.008;2023-02-21T02:52:05;8.79;118.99
66312;HTU21D;53114;51.138;6.008;2023-02-21T02:54:32;8.81;118.99
66312;HTU21D;53114;51.138;6.008;2023-02-21T02:57:01;8.83;118.99
66312;HTU21D;53114;51.138;6.008;2023-02-21T02:59:29;8.82;118.99
66312;HTU21D;53114;51.138;6.008;2023-02-21T03:07:58;8.71;118.99
66312;HTU21D;53114;51.138;6.008;2023-02-21T03:13:44;8.67;118.99
66312;HTU21D;53114;51.138;6.008;2023-02-21T03:18:49;8.64;118.99
66312;HTU21D;53114;51.138;6.008;2023-02-21T03:21:29;8.66;118.99
66312;HTU21D;53114;51.138;6.008;2023-02-21T03:24:00;8.62;118.99
66312;HTU21D;53114;51.138;6.008;2023-02-21T03:26:32;8.60;118.99
66312;HTU21D;53114;51.138;6.008;2023-02-21T03:29:20;8.59;118.99
66312;HTU21D;53114;51.138;6.008;2023-02-21T03:31:54;8.59;118.99
66312;HTU21D;53114;51.138;6.008;2023-02-21T03:34:21;8.57;118.99
66312;HTU21D;53114;51.138;6.008;2023-02-21T03:36:48;8.57;118.99
66312;HTU21D;53114;51.138;6.008;2023-02-21T03:39:14;8.57;118.99
66312;HTU21D;53114;51.138;6.008;2023-02-21T03:41:40;8.57;118.99
66312;HTU21D;53114;51.138;6.008;2023-02-21T03:44:06;8.59;118.99
66312;HTU21D;53114;51.138;6.008;2023-02-21T03:46:33;8.60;118.99
66312;HTU21D;53114;51.138;6.008;2023-02-21T03:48:59;8.64;118.99
66312;HTU21D;53114;51.138;6.008;2023-02-21T03:51:28;8.67;118.99
66312;HTU21D;53114;51.138;6.008;2023-02-21T03:53:54;8.68;118.99
66312;HTU21D;53114;51.138;6.008;2023-02-21T03:56:25;8.68;118.99
66312;HTU21D;53114;51.138;6.008;2023-02-21T03:59:00;8.72;118.99
66312;HTU21D;53114;51.138;6.008;2023-02-21T04:01:27;8.74;118.99
66312;HTU21D;53114;51.138;6.008;2023-02-21T04:03:54;8.75;118.99
66312;HTU21D;53114;51.138;6.008;2023-02-21T04:06:23;8.74;118.99
66312;HTU21D;53114;51.138;6.008;2023-02-21T04:08:50;8.73;118.99
66312;HTU21D;53114;51.138;6.008;2023-02-21T04:11:20;8.74;118.99
66312;HTU21D;53114;51.138;6.008;2023-02-21T04:13:47;8.70;118.99
66312;HTU21D;53114;51.138;6.008;2023-02-21T04:16:13;8.66;118.99
66312;HTU21D;53114;51.138;6.008;2023-02-21T04:18:39;8.66;118.99
66312;HTU21D;53114;51.138;6.008;2023-02-21T04:21:07;8.68;118.99
66312;HTU21D;53114;51.138;6.008;2023-02-21T04:23:33;8.73;118.99
66312;HTU21D;53114;51.138;6.008;2023-02-21T04:25:59;8.73;118.99
66312;HTU21D;53114;51.138;6.008;2023-02-21T04:28:33;8.71;118.99
66312;HTU21D;53114;51.138;6.008;2023-02-21T04:30:59;8.68;118.99
66312;HTU21D;53114;51.138;6.008;2023-02-21T04:33:25;8.62;118.99
66312;HTU21D;53114;51.138;6.008;2023-02-21T04:35:51;8.61;118.99
66312;HTU21D;53114;51.138;6.008;2023-02-21T04:38:31;8.63;118.99
66312;HTU21D;53114;51.138;6.008;2023-02-21T04:40:57;8.63;118.99
66312;HTU21D;53114;51.138;6.008;2023-02-21T04:43:23;8.68;118.99
66312;HTU21D;53114;51.138;6.008;2023-02-21T04:45:49;8.72;118.99
66312;HTU21D;53114;51.138;6.008;2023-02-21T04:48:15;8.68;118.99
66312;HTU21D;53114;51.138;6.008;2023-02-21T04:50:42;8.67;118.99
66312;HTU21D;53114;51.138;6.008;2023-02-21T04:53:08;8.68;118.99
66312;HTU21D;53114;51.138;6.008;2023-02-21T04:55:34;8.68;118.99
66312;HTU21D;53114;51.138;6.008;2023-02-21T04:58:00;8.66;118.99
66312;HTU21D;53114;51.138;6.008;2023-02-21T05:00:26;8.63;118.99
66312;HTU21D;53114;51.138;6.008;2023-02-21T05:02:52;8.62;118.99
66312;HTU21D;53114;51.138;6.008;2023-02-21T05:05:18;8.61;118.99
66312;HTU21D;53114;51.138;6.008;2023-02-21T05:07:44;8.62;118.99
66312;HTU21D;53114;51.138;6.008;2023-02-21T05:10:11;8.63;118.99
66312;HTU21D;53114;51.138;6.008;2023-02-21T05:12:37;8.62;118.99
66312;HTU21D;53114;51.138;6.008;2023-02-21T05:15:06;8.61;118.99
66312;HTU21D;53114;51.138;6.008;2023-02-21T05:17:32;8.56;118.99
66312;HTU21D;53114;51.138;6.008;2023-02-21T05:19:58;8.55;118.99
66312;HTU21D;53114;51.138;6.008;2023-02-21T05:22:24;8.55;118.99
66312;HTU21D;53114;51.138;6.008;2023-02-21T05:24:50;8.50;118.99
66312;HTU21D;53114;51.138;6.008;2023-02-21T05:27:19;8.47;118.99
66312;HTU21D;53114;51.138;6.008;2023-02-21T05:29:50;8.48;118.99
66312;HTU21D;53114;51.138;6.008;2023-02-21T05:32:20;8.47;118.99
66312;HTU21D;53114;51.138;6.008;2023-02-21T05:34:46;8.46;118.99
66312;HTU21D;53114;51.138;6.008;2023-02-21T05:37:14;8.47;118.99
66312;HTU21D;53114;51.138;6.008;2023-02-21T05:39:40;8.51;118.99
66312;HTU21D;53114;51.138;6.008;2023-02-21T05:42:06;8.52;118.99
66312;HTU21D;53114;51.138;6.008;2023-02-21T05:44:32;8.51;118.99
66312;HTU21D;53114;51.138;6.008;2023-02-21T05:46:59;8.48;118.99
66312;HTU21D;53114;51.138;6.008;2023-02-21T05:49:29;8.46;118.99
66312;HTU21D;53114;51.138;6.008;2023-02-21T05:51:55;8.45;118.99
66312;HTU21D;53114;51.138;6.008;2023-02-21T05:54:21;8.42;118.99
66312;HTU21D;53114;51.138;6.008;2023-02-21T05:56:50;8.42;118.99
66312;HTU21D;53114;51.138;6.008;2023-02-21T05:59:19;8.32;118.99
66312;HTU21D;53114;51.138;6.008;2023-02-21T06:01:47;8.30;118.99
66312;HTU21D;53114;51.138;6.008;2023-02-21T06:04:13;8.28;118.99
66312;HTU21D;53114;51.138;6.008;2023-02-21T06:06:39;8.30;118.99
66312;HTU21D;53114;51.138;6.008;2023-02-21T06:09:06;8.32;118.99
66312;HTU21D;53114;51.138;6.008;2023-02-21T06:11:33;8.34;118.99
66312;HTU21D;53114;51.138;6.008;2023-02-21T06:14:04;8.35;118.99
66312;HTU21D;53114;51.138;6.008;2023-02-21T06:16:32;8.33;118.99
66312;HTU21D;53114;51.138;6.008;2023-02-21T06:18:59;8.24;118.99
66312;HTU21D;53114;51.138;6.008;2023-02-21T06:21:25;8.19;118.99
66312;HTU21D;53114;51.138;6.008;2023-02-21T06:23:52;8.19;118.99
66312;HTU21D;53114;51.138;6.008;2023-02-21T06:26:19;8.20;118.99
66312;HTU21D;53114;51.138;6.008;2023-02-21T06:28:45;8.21;118.99
66312;HTU21D;53114;51.138;6.008;2023-02-21T06:31:11;8.22;118.99
66312;HTU21D;53114;51.138;6.008;2023-02-21T06:33:37;8.22;118.99
66312;HTU21D;53114;51.138;6.008;2023-02-21T06:36:16;8.19;118.99
66312;HTU21D;53114;51.138;6.008;2023-02-21T06:38:44;8.23;118.99
66312;HTU21D;53114;51.138;6.008;2023-02-21T06:41:16;8.27;118.99
66312;HTU21D;53114;51.138;6.008;2023-02-21T06:43:42;8.23;118.99
66312;HTU21D;53114;51.138;6.008;2023-02-21T06:46:08;8.21;118.99
66312;HTU21D;53114;51.138;6.008;2023-02-21T06:48:36;8.21;118.99
66312;HTU21D;53114;51.138;6.008;2023-02-21T06:51:02;8.22;118.99
66312;HTU21D;53114;51.138;6.008;2023-02-21T06:53:30;8.24;118.99
66312;HTU21D;53114;51.138;6.008;2023-02-21T06:55:56;8.26;118.99
66312;HTU21D;53114;51.138;6.008;2023-02-21T06:58:22;8.27;118.99
66312;HTU21D;53114;51.138;6.008;2023-02-21T07:00:48;8.32;118.99
66312;HTU21D;53114;51.138;6.008;2023-02-21T07:03:14;8.37;118.99
66312;HTU21D;53114;51.138;6.008;2023-02-21T07:05:40;8.44;118.99
66312;HTU21D;53114;51.138;6.008;2023-02-21T07:08:06;8.49;118.99
66312;HTU21D;53114;51.138;6.008;2023-02-21T07:10:32;8.51;118.99
66312;HTU21D;53114;51.138;6.008;2023-02-21T07:12:58;8.55;118.99
66312;HTU21D;53114;51.138;6.008;2023-02-21T07:15:24;8.55;118.99
66312;HTU21D;53114;51.138;6.008;2023-02-21T07:17:50;8.57;118.99
66312;HTU21D;53114;51.138;6.008;2023-02-21T07:20:17;8.58;118.99
66312;HTU21D;53114;51.138;6.008;2023-02-21T07:22:43;8.63;118.99
66312;HTU21D;53114;51.138;6.008;2023-02-21T07:25:18;8.68;118.99
66312;HTU21D;53114;51.138;6.008;2023-02-21T07:27:46;8.72;118.99
66312;HTU21D;53114;51.138;6.008;2023-02-21T07:30:13;8.71;118.99
66312;HTU21D;53114;51.138;6.008;2023-02-21T07:32:39;8.72;118.99
66312;HTU21D;53114;51.138;6.008;2023-02-21T07:35:06;8.73;118.99
66312;HTU21D;53114;51.138;6.008;2023-02-21T07:37:32;8.68;118.99
66312;HTU21D;53114;51.138;6.008;2023-02-21T07:39:58;8.66;118.99
66312;HTU21D;53114;51.138;6.008;2023-02-21T07:42:24;8.72;118.99
66312;HTU21D;53114;51.138;6.008;2023-02-21T07:44:58;8.72;118.99
66312;HTU21D;53114;51.138;6.008;2023-02-21T07:47:26;8.72;118.99
66312;HTU21D;53114;51.138;6.008;2023-02-21T07:49:52;8.75;118.99
66312;HTU21D;53114;51.138;6.008;2023-02-21T07:52:22;8.79;118.99
66312;HTU21D;53114;51.138;6.008;2023-02-21T07:54:48;8.86;118.99
66312;HTU21D;53114;51.138;6.008;2023-02-21T07:57:16;8.83;118.99
66312;HTU21D;53114;51.138;6.008;2023-02-21T07:59:42;8.79;118.99
66312;HTU21D;53114;51.138;6.008;2023-02-21T08:02:10;8.77;118.99
66312;HTU21D;53114;51.138;6.008;2023-02-21T08:04:37;8.78;118.99
66312;HTU21D;53114;51.138;6.008;2023-02-21T08:07:04;8.82;118.99
66312;HTU21D;53114;51.138;6.008;2023-02-21T08:09:30;8.85;118.99
66312;HTU21D;53114;51.138;6.008;2023-02-21T08:11:58;8.81;118.99
66312;HTU21D;53114;51.138;6.008;2023-02-21T08:14:24;8.85;118.99
66312;HTU21D;53114;51.138;6.008;2023-02-21T08:16:50;8.89;118.99
66312;HTU21D;53114;51.138;6.008;2023-02-21T08:19:16;8.89;118.99
66312;HTU21D;53114;51.138;6.008;2023-02-21T08:21:46;8.87;118.99
66312;HTU21D;53114;51.138;6.008;2023-02-21T08:24:14;8.85;118.99
66312;HTU21D;53114;51.138;6.008;2023-02-21T08:26:40;8.82;118.99
66312;HTU21D;53114;51.138;6.008;2023-02-21T08:29:07;8.78;118.99
66312;HTU21D;53114;51.138;6.008;2023-02-21T08:31:35;8.77;118.99
66312;HTU21D;53114;51.138;6.008;2023-02-21T08:34:01;8.78;118.99
66312;HTU21D;53114;51.138;6.008;2023-02-21T08:36:32;8.78;118.99
66312;HTU21D;53114;51.138;6.008;2023-02-21T08:38:58;8.85;118.99
66312;HTU21D;53114;51.138;6.008;2023-02-21T08:41:24;8.86;118.99
66312;HTU21D;53114;51.138;6.008;2023-02-21T08:43:51;8.89;118.99
66312;HTU21D;53114;51.138;6.008;2023-02-21T08:46:17;8.89;118.99
66312;HTU21D;53114;51.138;6.008;2023-02-21T08:48:43;8.93;118.99
66312;HTU21D;53114;51.138;6.008;2023-02-21T08:51:09;8.92;118.99
66312;HTU21D;53114;51.138;6.008;2023-02-21T08:53:35;8.89;118.99
66312;HTU21D;53114;51.138;6.008;2023-02-21T08:56:01;8.88;118.99
66312;HTU21D;53114;51.138;6.008;2023-02-21T08:58:27;8.94;118.99
66312;HTU21D;53114;51.138;6.008;2023-02-21T09:00:53;9.00;118.99
66312;HTU21D;53114;51.138;6.008;2023-02-21T09:03:19;9.04;118.99
66312;HTU21D;53114;51.138;6.008;2023-02-21T09:05:45;9.09;118.99
66312;HTU21D;53114;51.138;6.008;2023-02-21T09:08:11;9.09;118.99
66312;HTU21D;53114;51.138;6.008;2023-02-21T09:10:37;9.02;118.99
66312;HTU21D;53114;51.138;6.008;2023-02-21T09:13:12;8.95;118.99
66312;HTU21D;53114;51.138;6.008;2023-02-21T09:15:38;8.98;118.99
66312;HTU21D;53114;51.138;6.008;2023-02-21T09:18:04;9.06;118.99
66312;HTU21D;53114;51.138;6.008;2023-02-21T09:20:31;9.07;118.99
66312;HTU21D;53114;51.138;6.008;2023-02-21T09:22:57;9.06;118.99
66312;HTU21D;53114;51.138;6.008;2023-02-21T09:25:24;9.08;118.99
66312;HTU21D;53114;51.138;6.008;2023-02-21T09:27:51;9.09;118.99
66312;HTU21D;53114;51.138;6.008;2023-02-21T09:30:20;9.08;118.99
66312;HTU21D;53114;51.138;6.008;2023-02-21T09:32:48;9.07;118.99
66312;HTU21D;53114;51.138;6.008;2023-02-21T09:35:15;9.04;118.99
66312;HTU21D;53114;51.138;6.008;2023-02-21T09:37:43;9.04;118.99
66312;HTU21D;53114;51.138;6.008;2023-02-21T09:42:55;9.06;118.99
66312;HTU21D;53114;51.138;6.008;2023-02-21T09:45:26;9.09;118.99
66312;HTU21D;53114;51.138;6.008;2023-02-21T09:47:59;9.11;118.99
66312;HTU21D;53114;51.138;6.008;2023-02-21T09:50:34;9.17;118.99
66312;HTU21D;53114;51.138;6.008;2023-02-21T09:53:02;9.30;118.99
66312;HTU21D;53114;51.138;6.008;2023-02-21T09:55:34;9.36;118.99
66312;HTU21D;53114;51.138;6.008;2023-02-21T09:58:01;9.33;118.99
66312;HTU21D;53114;51.138;6.008;2023-02-21T10:00:36;9.37;118.99
66312;HTU21D;53114;51.138;6.008;2023-02-21T10:05:57;9.45;118.99
66312;HTU21D;53114;51.138;6.008;2023-02-21T10:08:57;9.60;118.99
66312;HTU21D;53114;51.138;6.008;2023-02-21T10:17:38;10.05;118.99
66312;HTU21D;53114;51.138;6.008;2023-02-21T10:20:14;10.13;118.99
66312;HTU21D;53114;51.138;6.008;2023-02-21T10:22:44;10.12;118.99
66312;HTU21D;53114;51.138;6.008;2023-02-21T10:25:27;10.19;118.99
66312;HTU21D;53114;51.138;6.008;2023-02-21T10:27:58;10.27;118.99
66312;HTU21D;53114;51.138;6.008;2023-02-21T10:30:36;10.35;118.99
66312;HTU21D;53114;51.138;6.008;2023-02-21T10:33:05;10.37;118.99
66312;HTU21D;53114;51.138;6.008;2023-02-21T10:35:33;10.36;118.99
66312;HTU21D;53114;51.138;6.008;2023-02-21T10:38:03;10.40;118.99
66312;HTU21D;53114;51.138;6.008;2023-02-21T10:40:47;10.40;118.99
66312;HTU21D;53114;51.138;6.008;2023-02-21T10:43:39;10.41;118.99
66312;HTU21D;53114;51.138;6.008;2023-02-21T10:46:36;10.42;118.99
66312;HTU21D;53114;51.138;6.008;2023-02-21T10:49:24;10.45;118.99
66312;HTU21D;53114;51.138;6.008;2023-02-21T10:52:15;10.43;118.99
66312;HTU21D;53114;51.138;6.008;2023-02-21T10:54:59;10.48;118.99
66312;HTU21D;53114;51.138;6.008;2023-02-21T10:57:29;10.53;118.99
66312;HTU21D;53114;51.138;6.008;2023-02-21T10:59:59;10.62;118.99
66312;HTU21D;53114;51.138;6.008;2023-02-21T11:02:40;10.62;118.99
66312;HTU21D;53114;51.138;6.008;2023-02-21T11:05:19;10.54;118.99
66312;HTU21D;53114;51.138;6.008;2023-02-21T11:10:32;10.46;118.99
66312;HTU21D;53114;51.138;6.008;2023-02-21T11:13:05;10.45;118.99
66312;HTU21D;53114;51.138;6.008;2023-02-21T11:15:31;10.48;118.99
66312;HTU21D;53114;51.138;6.008;2023-02-21T11:18:04;10.42;118.99
66312;HTU21D;53114;51.138;6.008;2023-02-21T11:20:33;10.36;118.99
66312;HTU21D;53114;51.138;6.008;2023-02-21T11:22:59;10.41;118.99
66312;HTU21D;53114;51.138;6.008;2023-02-21T11:25:29;10.48;118.99
66312;HTU21D;53114;51.138;6.008;2023-02-21T11:33:51;10.30;118.99
66312;HTU21D;53114;51.138;6.008;2023-02-21T11:36:27;10.22;118.99
66312;HTU21D;53114;51.138;6.008;2023-02-21T11:39:45;10.21;118.99
66312;HTU21D;53114;51.138;6.008;2023-02-21T11:41:56;10.24;118.99
66312;HTU21D;53114;51.138;6.008;2023-02-21T11:44:24;10.24;118.99
66312;HTU21D;53114;51.138;6.008;2023-02-21T11:49:50;10.24;118.99
66312;HTU21D;53114;51.138;6.008;2023-02-21T11:52:38;10.27;118.99
66312;HTU21D;53114;51.138;6.008;2023-02-21T11:55:16;10.34;118.99
66312;HTU21D;53114;51.138;6.008;2023-02-21T12:03:52;10.48;118.99
66312;HTU21D;53114;51.138;6.008;2023-02-21T12:09:20;10.40;118.99
66312;HTU21D;53114;51.138;6.008;2023-02-21T12:12:01;10.35;118.99
66312;HTU21D;53114;51.138;6.008;2023-02-21T12:14:56;10.41;118.99
66312;HTU21D;53114;51.138;6.008;2023-02-21T12:29:02;10.13;118.99
66312;HTU21D;53114;51.138;6.008;2023-02-21T12:40:19;10.31;118.99
66312;HTU21D;53114;51.138;6.008;2023-02-21T12:46:00;10.53;118.99
66312;HTU21D;53114;51.138;6.008;2023-02-21T12:48:53;10.39;118.99
66312;HTU21D;53114;51.138;6.008;2023-02-21T12:51:31;10.38;118.99
66312;HTU21D;53114;51.138;6.008;2023-02-21T12:54:06;10.43;118.99
66312;HTU21D;53114;51.138;6.008;2023-02-21T12:56:53;10.48;118.99
66312;HTU21D;53114;51.138;6.008;2023-02-21T12:59:32;10.48;118.99
66312;HTU21D;53114;51.138;6.008;2023-02-21T13:02:35;10.40;118.99
66312;HTU21D;53114;51.138;6.008;2023-02-21T13:05:12;10.37;118.99
66312;HTU21D;53114;51.138;6.008;2023-02-21T13:07:55;10.42;118.99
66312;HTU21D;53114;51.138;6.008;2023-02-21T13:10:32;10.44;118.99
66312;HTU21D;53114;51.138;6.008;2023-02-21T13:13:01;10.42;118.99
66312;HTU21D;53114;51.138;6.008;2023-02-21T13:15:29;10.36;118.99
66312;HTU21D;53114;51.138;6.008;2023-02-21T13:20:43;10.33;118.99
66312;HTU21D;53114;51.138;6.008;2023-02-21T13:23:12;10.33;118.99
66312;HTU21D;53114;51.138;6.008;2023-02-21T13:26:00;10.36;118.99
66312;HTU21D;53114;51.138;6.008;2023-02-21T13:28:31;10.40;118.99
66312;HTU21D;53114;51.138;6.008;2023-02-21T13:31:04;10.46;118.99
66312;HTU21D;53114;51.138;6.008;2023-02-21T13:33:43;10.56;118.99
66312;HTU21D;53114;51.138;6.008;2023-02-21T13:41:45;10.28;118.99
66312;HTU21D;53114;51.138;6.008;2023-02-21T13:44:33;10.12;118.99
66312;HTU21D;53114;51.138;6.008;2023-02-21T13:47:04;10.12;118.99
66312;HTU21D;53114;51.138;6.008;2023-02-21T13:49:57;10.20;118.99
66312;HTU21D;53114;51.138;6.008;2023-02-21T13:52:34;10.25;118.99
66312;HTU21D;53114;51.138;6.008;2023-02-21T14:08:25;10.60;118.99
66312;HTU21D;53114;51.138;6.008;2023-02-21T14:10:58;10.70;118.99
66312;HTU21D;53114;51.138;6.008;2023-02-21T14:18:54;10.63;118.99
66312;HTU21D;53114;51.138;6.008;2023-02-21T14:21:38;10.49;118.99
66312;HTU21D;53114;51.138;6.008;2023-02-21T14:24:20;10.44;118.99
66312;HTU21D;53114;51.138;6.008;2023-02-21T14:27:03;10.38;118.99
66312;HTU21D;53114;51.138;6.008;2023-02-21T14:29:41;10.39;118.99
66312;HTU21D;53114;51.138;6.008;2023-02-21T15:10:30;10.14;118.99
66312;HTU21D;53114;51.138;6.008;2023-02-21T15:13:02;10.15;118.99
66312;HTU21D;53114;51.138;6.008;2023-02-21T15:15:38;10.14;118.99
66312;HTU21D;53114;51.138;6.008;2023-02-21T15:18:07;10.14;118.99
66312;HTU21D;53114;51.138;6.008;2023-02-21T15:20:37;10.13;118.99
66312;HTU21D;53114;51.138;6.008;2023-02-21T15:25:35;10.04;118.99
66312;HTU21D;53114;51.138;6.008;2023-02-21T15:28:05;10.04;118.99
66312;HTU21D;53114;51.138;6.008;2023-02-21T15:30:34;10.04;118.99
66312;HTU21D;53114;51.138;6.008;2023-02-21T15:33:04;10.05;118.99
66312;HTU21D;53114;51.138;6.008;2023-02-21T15:35:38;10.05;118.99
66312;HTU21D;53114;51.138;6.008;2023-02-21T15:44:10;9.48;118.99
66312;HTU21D;53114;51.138;6.008;2023-02-21T15:49:31;9.34;118.99
66312;HTU21D;53114;51.138;6.008;2023-02-21T15:52:03;9.40;118.99
66312;HTU21D;53114;51.138;6.008;2023-02-21T15:54:32;9.51;118.99
66312;HTU21D;53114;51.138;6.008;2023-02-21T15:59:38;9.70;118.99
66312;HTU21D;53114;51.138;6.008;2023-02-21T16:04:40;9.79;118.99
66312;HTU21D;53114;51.138;6.008;2023-02-21T16:07:35;9.80;118.99
66312;HTU21D;53114;51.138;6.008;2023-02-21T16:10:09;9.85;118.99
66312;HTU21D;53114;51.138;6.008;2023-02-21T16:12:42;9.90;118.99
66312;HTU21D;53114;51.138;6.008;2023-02-21T16:17:50;9.98;118.99
66312;HTU21D;53114;51.138;6.008;2023-02-21T16:20:38;9.94;118.99
66312;HTU21D;53114;51.138;6.008;2023-02-21T16:23:24;9.95;118.99
66312;HTU21D;53114;51.138;6.008;2023-02-21T16:28:39;9.98;118.99
66312;HTU21D;53114;51.138;6.008;2023-02-21T16:31:09;9.99;118.99
66312;HTU21D;53114;51.138;6.008;2023-02-21T16:33:37;10.01;118.99
66312;HTU21D;53114;51.138;6.008;2023-02-21T16:36:06;10.00;118.99
66312;HTU21D;53114;51.138;6.008;2023-02-21T16:38:33;9.97;118.99
66312;HTU21D;53114;51.138;6.008;2023-02-21T16:40:59;9.97;118.99
66312;HTU21D;53114;51.138;6.008;2023-02-21T16:43:27;9.92;118.99
66312;HTU21D;53114;51.138;6.008;2023-02-21T16:45:57;9.84;118.99
66312;HTU21D;53114;51.138;6.008;2023-02-21T16:48:26;9.79;118.99
66312;HTU21D;53114;51.138;6.008;2023-02-21T16:51:02;9.78;118.99
66312;HTU21D;53114;51.138;6.008;2023-02-21T16:53:30;9.78;118.99
66312;HTU21D;53114;51.138;6.008;2023-02-21T16:55:59;9.80;118.99
66312;HTU21D;53114;51.138;6.008;2023-02-21T17:01:04;9.77;118.99
66312;HTU21D;53114;51.138;6.008;2023-02-21T17:03:30;9.68;118.99
66312;HTU21D;53114;51.138;6.008;2023-02-21T17:05:58;9.62;118.99
66312;HTU21D;53114;51.138;6.008;2023-02-21T17:08:25;9.57;118.99
66312;HTU21D;53114;51.138;6.008;2023-02-21T17:10:54;9.48;118.99
66312;HTU21D;53114;51.138;6.008;2023-02-21T17:13:20;9.42;118.99
66312;HTU21D;53114;51.138;6.008;2023-02-21T17:15:46;9.32;118.99
66312;HTU21D;53114;51.138;6.008;2023-02-21T17:18:12;9.23;118.99
66312;HTU21D;53114;51.138;6.008;2023-02-21T17:20:38;9.15;118.99
66312;HTU21D;53114;51.138;6.008;2023-02-21T17:23:06;9.11;118.99
66312;HTU21D;53114;51.138;6.008;2023-02-21T17:25:31;9.12;118.99
66312;HTU21D;53114;51.138;6.008;2023-02-21T17:27:59;9.11;118.99
66312;HTU21D;53114;51.138;6.008;2023-02-21T17:30:25;9.14;118.99
66312;HTU21D;53114;51.138;6.008;2023-02-21T17:32:51;9.20;118.99
66312;HTU21D;53114;51.138;6.008;2023-02-21T17:35:20;9.27;118.99
66312;HTU21D;53114;51.138;6.008;2023-02-21T17:37:47;9.37;118.99
66312;HTU21D;53114;51.138;6.008;2023-02-21T17:40:16;9.37;118.99
66312;HTU21D;53114;51.138;6.008;2023-02-21T17:42:43;9.36;118.99
66312;HTU21D;53114;51.138;6.008;2023-02-21T17:45:09;9.33;118.99
66312;HTU21D;53114;51.138;6.008;2023-02-21T17:47:35;9.33;118.99
66312;HTU21D;53114;51.138;6.008;2023-02-21T17:50:02;9.39;118.99
66312;HTU21D;53114;51.138;6.008;2023-02-21T17:52:30;9.44;118.99
66312;HTU21D;53114;51.138;6.008;2023-02-21T17:54:56;9.49;118.99
66312;HTU21D;53114;51.138;6.008;2023-02-21T17:57:22;9.55;118.99
66312;HTU21D;53114;51.138;6.008;2023-02-21T17:59:49;9.62;118.99
66312;HTU21D;53114;51.138;6.008;2023-02-21T18:02:15;9.65;118.99
66312;HTU21D;53114;51.138;6.008;2023-02-21T18:04:46;9.63;118.99
66312;HTU21D;53114;51.138;6.008;2023-02-21T18:07:13;9.65;118.99
66312;HTU21D;53114;51.138;6.008;2023-02-21T18:09:39;9.64;118.99
66312;HTU21D;53114;51.138;6.008;2023-02-21T18:12:05;9.63;118.99
66312;HTU21D;53114;51.138;6.008;2023-02-21T18:14:32;9.57;118.99
66312;HTU21D;53114;51.138;6.008;2023-02-21T18:16:58;9.59;118.99
66312;HTU21D;53114;51.138;6.008;2023-02-21T18:19:24;9.60;118.99
66312;HTU21D;53114;51.138;6.008;2023-02-21T18:21:50;9.55;118.99
66312;HTU21D;53114;51.138;6.008;2023-02-21T18:24:18;9.50;118.99
66312;HTU21D;53114;51.138;6.008;2023-02-21T18:26:46;9.49;118.99
66312;HTU21D;53114;51.138;6.008;2023-02-21T18:29:12;9.53;118.99
66312;HTU21D;53114;51.138;6.008;2023-02-21T18:31:38;9.53;118.99
66312;HTU21D;53114;51.138;6.008;2023-02-21T18:34:04;9.55;118.99
66312;HTU21D;53114;51.138;6.008;2023-02-21T18:36:30;9.56;118.99
66312;HTU21D;53114;51.138;6.008;2023-02-21T18:38:56;9.59;118.99
66312;HTU21D;53114;51.138;6.008;2023-02-21T18:41:22;9.61;118.99
66312;HTU21D;53114;51.138;6.008;2023-02-21T18:43:49;9.57;118.99
66312;HTU21D;53114;51.138;6.008;2023-02-21T18:46:19;9.56;118.99
66312;HTU21D;53114;51.138;6.008;2023-02-21T18:48:48;9.59;118.99
66312;HTU21D;53114;51.138;6.008;2023-02-21T18:51:17;9.57;118.99